Time;durP1;ratioP1;P1;durP2;ratioP2;P2;SDS_P1;SDS_P2;PMS_P1;PMS_P2;Temp;Humidity;BMP_temperature;BMP_pressure;BME280_temperature;BME280_humidity;BME280_pressure;Samples;Min_cycle;Max_cycle;Signal;HPM_P1;HPM_P2
2022/11/26 00:02:25;;;;;;;10.07;2.15;;;6.80;99.90;;;;;;5011163;28;20120;-73
2022/11/26 00:04:52;;;;;;;5.10;1.70;;;6.80;99.90;;;;;;5026041;28;20073;-73
2022/11/26 00:07:21;;;;;;;7.90;2.08;;;6.80;99.90;;;;;;5010664;28;20072;-73
2022/11/26 00:09:48;;;;;;;5.00;2.13;;;6.70;99.90;;;;;;5015316;28;20517;-73
2022/11/26 00:12:19;;;;;;;3.30;1.90;;;6.70;99.90;;;;;;5019376;28;20038;-73
2022/11/26 00:14:46;;;;;;;5.22;2.00;;;6.70;99.90;;;;;;5004143;28;20042;-73
2022/11/26 00:17:15;;;;;;;2.95;1.55;;;6.70;99.90;;;;;;5004801;28;20038;-73
2022/11/26 00:19:41;;;;;;;6.50;1.90;;;6.60;99.90;;;;;;4990797;28;20133;-73
2022/11/26 00:22:29;;;;;;;5.70;2.58;;;6.60;99.90;;;;;;5005097;28;20104;-73
2022/11/26 00:24:55;;;;;;;2.58;1.60;;;6.60;99.90;;;;;;4992516;28;20052;-73
2022/11/26 00:27:24;;;;;;;9.70;2.10;;;6.60;99.90;;;;;;5020343;28;20128;-74
2022/11/26 00:29:50;;;;;;;5.43;2.50;;;6.60;99.90;;;;;;5009898;28;20084;-73
2022/11/26 00:32:22;;;;;;;2.50;1.50;;;6.60;99.90;;;;;;5005614;28;20037;-73
2022/11/26 00:34:48;;;;;;;5.95;1.70;;;6.60;99.90;;;;;;5005921;28;20038;-74
2022/11/26 00:37:36;;;;;;;2.95;1.77;;;6.50;99.90;;;;;;5018565;28;20037;-73
2022/11/26 00:40:02;;;;;;;4.03;2.00;;;6.60;99.90;;;;;;5013580;28;20494;-73
2022/11/26 00:42:28;;;;;;;3.47;1.92;;;6.60;99.90;;;;;;5010298;28;20839;-74
2022/11/26 00:44:54;;;;;;;5.32;1.73;;;6.50;99.90;;;;;;5003885;28;20045;-73
2022/11/26 00:47:19;;;;;;;3.13;2.15;;;6.60;99.90;;;;;;5007455;28;20041;-73
2022/11/26 00:49:45;;;;;;;7.15;2.22;;;6.60;99.90;;;;;;5012152;28;20193;-73
2022/11/26 00:52:32;;;;;;;3.35;1.95;;;6.60;99.90;;;;;;5005617;28;20527;-73
2022/11/26 00:54:58;;;;;;;4.53;1.85;;;6.50;99.90;;;;;;5012219;28;20360;-73
2022/11/26 00:57:24;;;;;;;7.85;2.40;;;6.50;99.90;;;;;;5021829;28;20042;-73
2022/11/26 00:59:50;;;;;;;6.60;2.10;;;6.50;99.90;;;;;;5002228;28;20036;-73
2022/11/26 01:02:15;;;;;;;4.03;1.73;;;6.40;99.90;;;;;;5011170;28;20041;-73
2022/11/26 01:04:41;;;;;;;6.85;2.58;;;6.40;99.90;;;;;;5010229;28;20551;-73
2022/11/26 01:07:09;;;;;;;6.70;1.83;;;6.40;99.90;;;;;;5011547;28;20099;-73
2022/11/26 01:09:34;;;;;;;4.03;1.60;;;6.40;99.90;;;;;;5010857;28;20034;-73
2022/11/26 01:12:00;;;;;;;2.88;1.70;;;6.40;99.90;;;;;;5008119;28;20038;-73
2022/11/26 01:14:26;;;;;;;2.80;1.63;;;6.40;99.90;;;;;;5007834;28;20045;-73
2022/11/26 01:16:54;;;;;;;5.15;2.15;;;6.40;99.90;;;;;;5017723;28;20033;-73
2022/11/26 01:19:20;;;;;;;4.50;2.25;;;6.40;99.90;;;;;;5003864;28;20045;-73
2022/11/26 01:21:45;;;;;;;4.50;2.20;;;6.40;99.90;;;;;;5015224;28;20087;-73
2022/11/26 01:24:11;;;;;;;5.43;2.25;;;6.40;99.90;;;;;;5024827;28;20120;-73
2022/11/26 01:26:43;;;;;;;5.63;1.75;;;6.40;99.90;;;;;;5009453;28;20045;-73
2022/11/26 01:29:18;;;;;;;5.95;2.53;;;6.30;99.90;;;;;;5006538;28;20042;-73
2022/11/26 01:31:44;;;;;;;3.00;1.70;;;6.40;99.90;;;;;;5008287;28;20069;-74
2022/11/26 01:34:10;;;;;;;4.75;2.17;;;6.30;99.90;;;;;;5023759;28;20068;-73
2022/11/26 01:36:38;;;;;;;4.70;1.83;;;6.30;99.90;;;;;;5016533;28;20037;-73
2022/11/26 01:39:06;;;;;;;7.05;2.60;;;6.30;99.90;;;;;;5008795;28;20566;-73
2022/11/26 01:41:54;;;;;;;5.45;2.30;;;6.30;99.90;;;;;;5019332;28;20041;-73
2022/11/26 01:44:23;;;;;;;4.65;2.38;;;6.20;99.90;;;;;;5022588;28;20052;-73
2022/11/26 01:46:50;;;;;;;6.90;3.00;;;6.30;99.90;;;;;;5014125;28;20051;-73
2022/11/26 01:49:20;;;;;;;5.40;2.63;;;6.30;99.90;;;;;;5017306;28;20125;-73
2022/11/26 01:52:03;;;;;;;10.52;2.22;;;6.30;99.90;;;;;;4990959;28;20615;-74
2022/11/26 01:54:31;;;;;;;4.57;2.75;;;6.30;99.90;;;;;;5006893;28;20041;-73
2022/11/26 01:57:13;;;;;;;4.03;2.03;;;6.30;99.90;;;;;;5006720;28;20069;-73
2022/11/26 01:59:41;;;;;;;5.50;2.05;;;6.30;99.90;;;;;;4997973;28;20518;-73
2022/11/26 02:02:06;;;;;;;4.85;2.22;;;6.20;99.90;;;;;;5013107;28;20041;-73
2022/11/26 02:04:37;;;;;;;3.00;1.65;;;6.30;99.90;;;;;;5026462;28;20056;-73
2022/11/26 02:07:03;;;;;;;3.95;2.28;;;6.30;99.90;;;;;;5008219;28;20083;-74
2022/11/26 02:09:30;;;;;;;4.82;2.28;;;6.30;99.90;;;;;;5017133;28;20507;-73
2022/11/26 02:11:56;;;;;;;4.05;1.73;;;6.30;99.90;;;;;;5003443;28;20037;-73
2022/11/26 02:14:29;;;;;;;3.33;2.47;;;6.30;99.90;;;;;;5005800;28;21824;-74
2022/11/26 02:17:16;;;;;;;5.63;2.50;;;6.20;99.90;;;;;;5024995;28;20083;-73
2022/11/26 02:20:10;;;;;;;5.03;2.10;;;6.20;99.90;;;;;;5021446;28;20057;-73
2022/11/26 02:22:47;;;;;;;11.65;2.42;;;6.20;99.90;;;;;;5025852;28;20053;-73
2022/11/26 02:25:18;;;;;;;5.57;2.03;;;6.20;99.90;;;;;;4987235;28;20574;-73
2022/11/26 02:28:12;;;;;;;5.07;2.40;;;6.10;99.90;;;;;;5011466;28;20037;-73
2022/11/26 02:30:43;;;;;;;4.15;2.28;;;6.10;99.90;;;;;;5010649;28;20120;-74
2022/11/26 02:33:16;;;;;;;3.25;1.90;;;6.20;99.90;;;;;;5023472;28;20116;-74
2022/11/26 02:35:51;;;;;;;3.88;2.05;;;6.10;99.90;;;;;;5016892;28;20052;-74
2022/11/26 02:38:23;;;;;;;5.03;2.03;;;6.10;99.90;;;;;;5025426;28;20061;-73
2022/11/26 02:40:49;;;;;;;3.90;2.15;;;6.00;99.90;;;;;;5005494;28;20042;-73
2022/11/26 02:43:16;;;;;;;4.28;1.95;;;6.00;99.90;;;;;;5003133;28;20091;-73
2022/11/26 02:45:45;;;;;;;3.10;1.70;;;6.10;99.90;;;;;;5005041;28;20137;-73
2022/11/26 02:48:14;;;;;;;3.78;2.08;;;6.10;99.90;;;;;;5005018;28;20046;-73
2022/11/26 02:50:50;;;;;;;7.22;3.15;;;6.00;99.90;;;;;;5016269;28;20049;-74
2022/11/26 02:53:19;;;;;;;3.58;2.35;;;6.10;99.90;;;;;;5005497;28;20073;-73
2022/11/26 02:55:49;;;;;;;4.30;2.08;;;6.10;99.90;;;;;;4991165;28;20061;-73
2022/11/26 02:58:16;;;;;;;6.88;2.40;;;6.10;99.90;;;;;;5005688;28;20033;-74
2022/11/26 03:00:42;;;;;;;3.40;1.98;;;6.10;99.90;;;;;;5004696;28;20124;-74
2022/11/26 03:03:31;;;;;;;3.72;2.03;;;6.10;99.90;;;;;;4989984;28;20034;-73
2022/11/26 03:06:05;;;;;;;6.30;2.10;;;6.10;99.90;;;;;;5003228;28;20153;-74
2022/11/26 03:08:32;;;;;;;5.38;1.75;;;6.10;99.90;;;;;;4997447;28;20107;-73
2022/11/26 03:10:58;;;;;;;4.72;2.22;;;6.10;99.90;;;;;;5002477;28;20037;-74
2022/11/26 03:13:23;;;;;;;4.22;2.13;;;6.10;99.90;;;;;;4999205;28;20071;-73
2022/11/26 03:15:49;;;;;;;3.08;1.80;;;6.00;99.90;;;;;;5011980;28;20041;-73
2022/11/26 03:18:15;;;;;;;5.97;2.60;;;6.00;99.90;;;;;;5005931;28;20057;-73
2022/11/26 03:20:41;;;;;;;2.88;1.90;;;6.00;99.90;;;;;;4990200;28;20133;-74
2022/11/26 03:23:06;;;;;;;3.97;1.55;;;6.00;99.90;;;;;;5015799;28;20125;-73
2022/11/26 03:25:33;;;;;;;3.78;1.90;;;5.90;99.90;;;;;;5005311;28;20041;-74
2022/11/26 03:27:58;;;;;;;2.83;1.67;;;5.90;99.90;;;;;;5006723;28;20566;-73
2022/11/26 03:30:24;;;;;;;4.30;2.70;;;5.90;99.90;;;;;;5006123;28;20140;-73
2022/11/26 03:32:50;;;;;;;7.18;2.28;;;5.90;99.90;;;;;;4986394;28;20510;-73
2022/11/26 03:35:15;;;;;;;5.88;2.38;;;5.90;99.90;;;;;;5010603;28;20411;-74
2022/11/26 03:37:41;;;;;;;8.30;2.60;;;5.90;99.90;;;;;;5024131;28;20104;-73
2022/11/26 03:40:07;;;;;;;3.63;2.00;;;5.90;99.90;;;;;;5012249;28;20038;-74
2022/11/26 03:42:33;;;;;;;4.50;1.92;;;5.90;99.90;;;;;;5009742;28;20049;-74
2022/11/26 03:44:58;;;;;;;3.70;2.15;;;5.80;99.90;;;;;;5020931;28;20046;-73
2022/11/26 03:47:24;;;;;;;3.90;1.95;;;5.90;99.90;;;;;;5003332;28;20040;-74
2022/11/26 03:49:49;;;;;;;3.40;1.70;;;5.80;99.90;;;;;;5004832;28;20034;-74
2022/11/26 03:52:16;;;;;;;5.30;2.13;;;5.90;99.90;;;;;;5007531;28;20553;-74
2022/11/26 03:54:42;;;;;;;8.98;2.42;;;5.80;99.90;;;;;;5005729;28;20033;-74
2022/11/26 03:57:07;;;;;;;4.97;1.92;;;5.80;99.90;;;;;;5001141;28;20057;-74
2022/11/26 03:59:33;;;;;;;5.00;2.17;;;5.80;99.90;;;;;;5000691;28;20048;-73
2022/11/26 04:01:58;;;;;;;3.78;2.15;;;5.80;99.90;;;;;;4999267;28;20492;-73
2022/11/26 04:04:24;;;;;;;7.00;2.45;;;5.80;99.90;;;;;;4996560;28;20610;-74
2022/11/26 04:06:50;;;;;;;4.25;1.98;;;5.80;99.90;;;;;;4998967;28;20046;-74
2022/11/26 04:09:15;;;;;;;5.72;1.98;;;5.80;99.90;;;;;;4995538;28;20049;-74
2022/11/26 04:11:41;;;;;;;3.92;1.60;;;5.80;99.90;;;;;;5001099;28;20098;-73
2022/11/26 04:14:06;;;;;;;4.95;2.47;;;5.80;99.90;;;;;;5000225;28;20060;-73
2022/11/26 04:16:32;;;;;;;3.78;2.25;;;5.80;99.90;;;;;;5002519;28;20044;-73
2022/11/26 04:18:58;;;;;;;3.70;2.10;;;5.70;99.90;;;;;;5000506;28;20066;-74
2022/11/26 04:21:23;;;;;;;3.65;2.15;;;5.70;99.90;;;;;;5004509;28;20074;-74
2022/11/26 04:23:49;;;;;;;5.75;2.30;;;5.70;99.90;;;;;;5003156;28;20404;-73
2022/11/26 04:26:14;;;;;;;9.52;2.50;;;5.70;99.90;;;;;;4982062;28;20061;-73
2022/11/26 04:28:40;;;;;;;10.23;2.22;;;5.80;99.90;;;;;;5002644;28;20123;-73
2022/11/26 04:31:06;;;;;;;4.97;1.92;;;5.80;99.90;;;;;;5003246;28;20045;-73
2022/11/26 04:33:31;;;;;;;11.05;2.53;;;5.80;99.90;;;;;;5000892;28;20033;-74
2022/11/26 04:35:57;;;;;;;2.42;1.73;;;5.80;99.90;;;;;;4985722;28;20187;-74
2022/11/26 04:38:22;;;;;;;3.50;2.08;;;5.80;99.90;;;;;;5010996;28;20041;-73
2022/11/26 04:40:48;;;;;;;4.00;2.40;;;5.70;99.90;;;;;;5006452;28;20153;-74
2022/11/26 04:43:14;;;;;;;11.30;3.45;;;5.70;99.90;;;;;;4989082;28;20045;-73
2022/11/26 04:45:39;;;;;;;4.47;2.35;;;5.80;99.90;;;;;;5002212;28;20133;-73
2022/11/26 04:48:05;;;;;;;6.03;2.55;;;5.80;99.90;;;;;;4986725;28;20045;-74
2022/11/26 04:50:31;;;;;;;3.72;2.10;;;5.70;99.90;;;;;;4986180;28;20037;-74
2022/11/26 04:52:57;;;;;;;5.47;2.20;;;5.80;99.90;;;;;;5017713;28;20030;-73
2022/11/26 04:55:23;;;;;;;4.25;2.30;;;5.70;99.90;;;;;;5004616;28;20062;-73
2022/11/26 04:57:48;;;;;;;5.05;2.33;;;5.80;99.90;;;;;;5009176;28;20471;-74
2022/11/26 05:00:16;;;;;;;5.18;2.22;;;5.70;99.90;;;;;;5004565;28;20088;-74
2022/11/26 05:02:41;;;;;;;12.32;3.40;;;5.70;99.90;;;;;;5001096;28;20763;-74
2022/11/26 05:05:07;;;;;;;5.90;2.35;;;5.70;99.90;;;;;;5001634;28;20038;-74
2022/11/26 05:07:33;;;;;;;4.57;2.63;;;5.70;99.90;;;;;;4984890;28;20034;-74
2022/11/26 05:09:59;;;;;;;4.13;2.03;;;5.70;99.90;;;;;;5000587;28;20136;-74
2022/11/26 05:12:24;;;;;;;5.30;2.67;;;5.70;99.90;;;;;;5003391;28;20061;-74
2022/11/26 05:14:50;;;;;;;6.00;2.58;;;5.60;99.90;;;;;;5003680;28;20480;-74
2022/11/26 05:17:16;;;;;;;3.90;2.45;;;5.70;99.90;;;;;;5005161;28;20117;-74
2022/11/26 05:19:41;;;;;;;4.55;2.90;;;5.60;99.90;;;;;;5007225;28;20591;-73
2022/11/26 05:22:07;;;;;;;6.40;2.67;;;5.60;99.90;;;;;;5007855;28;20455;-74
2022/11/26 05:24:33;;;;;;;7.07;3.15;;;5.70;99.90;;;;;;5025408;28;20037;-74
2022/11/26 05:26:58;;;;;;;4.93;2.75;;;5.60;99.90;;;;;;5007796;28;20042;-74
2022/11/26 05:29:24;;;;;;;6.90;2.92;;;5.70;99.90;;;;;;5000628;28;20034;-74
2022/11/26 05:31:50;;;;;;;6.57;3.17;;;5.60;99.90;;;;;;5003780;28;20041;-74
2022/11/26 05:34:16;;;;;;;7.53;3.38;;;5.70;99.90;;;;;;5004011;28;20399;-74
2022/11/26 05:36:42;;;;;;;3.60;2.65;;;5.70;99.90;;;;;;5001739;28;20038;-74
2022/11/26 05:39:07;;;;;;;6.30;2.67;;;5.60;99.90;;;;;;5000258;28;20961;-74
2022/11/26 05:41:33;;;;;;;6.13;2.33;;;5.70;99.90;;;;;;4985541;28;20042;-74
2022/11/26 05:43:59;;;;;;;5.57;2.65;;;5.70;99.90;;;;;;5001529;28;20052;-74
2022/11/26 05:46:25;;;;;;;3.35;2.03;;;5.70;99.90;;;;;;4986016;28;20046;-74
2022/11/26 05:48:51;;;;;;;3.35;2.65;;;5.70;99.90;;;;;;5007524;28;20431;-74
2022/11/26 05:51:16;;;;;;;6.75;2.92;;;5.60;99.90;;;;;;5002109;28;20061;-74
2022/11/26 05:53:42;;;;;;;6.05;2.75;;;5.70;99.90;;;;;;5001324;28;20057;-74
2022/11/26 05:56:07;;;;;;;8.68;2.75;;;5.70;99.90;;;;;;4987163;28;20636;-73
2022/11/26 05:58:33;;;;;;;4.47;2.90;;;5.70;99.90;;;;;;4986337;28;20061;-74
2022/11/26 06:00:59;;;;;;;4.30;2.95;;;5.70;99.90;;;;;;5002902;28;20120;-74
2022/11/26 06:03:25;;;;;;;5.93;2.90;;;5.70;99.90;;;;;;5003818;28;20054;-74
2022/11/26 06:05:51;;;;;;;6.28;2.83;;;5.70;99.90;;;;;;4983277;28;20049;-74
2022/11/26 06:08:16;;;;;;;7.97;2.80;;;5.70;99.90;;;;;;5005139;28;20048;-74
2022/11/26 06:10:42;;;;;;;5.38;2.92;;;5.70;99.90;;;;;;5001606;28;20064;-74
2022/11/26 06:13:08;;;;;;;4.25;2.63;;;5.70;99.90;;;;;;5003138;28;20038;-74
2022/11/26 06:15:33;;;;;;;8.55;3.40;;;5.70;99.90;;;;;;5007315;28;20084;-74
2022/11/26 06:17:59;;;;;;;8.23;3.53;;;5.70;99.90;;;;;;5005980;28;20242;-74
2022/11/26 06:20:25;;;;;;;6.25;4.10;;;5.70;99.90;;;;;;5021172;28;20061;-74
2022/11/26 06:22:50;;;;;;;7.72;3.45;;;5.70;99.90;;;;;;5007028;28;20092;-74
2022/11/26 06:25:16;;;;;;;6.30;2.30;;;5.60;99.90;;;;;;5008435;28;20041;-74
2022/11/26 06:27:42;;;;;;;5.00;2.80;;;5.70;99.90;;;;;;5015789;28;20579;-74
2022/11/26 06:30:09;;;;;;;8.48;3.55;;;5.70;99.90;;;;;;5015806;28;20033;-73
2022/11/26 06:32:35;;;;;;;4.55;2.63;;;5.60;99.90;;;;;;4989290;28;20041;-74
2022/11/26 06:35:00;;;;;;;5.80;2.60;;;5.70;99.90;;;;;;5007075;28;20033;-73
2022/11/26 06:37:26;;;;;;;3.95;2.15;;;5.70;99.90;;;;;;5016810;28;20053;-74
2022/11/26 06:39:51;;;;;;;5.40;2.40;;;5.70;99.90;;;;;;5006818;28;20060;-74
2022/11/26 06:42:17;;;;;;;4.70;2.22;;;5.70;99.90;;;;;;5004494;28;20064;-74
2022/11/26 06:44:45;;;;;;;3.53;2.20;;;5.70;99.90;;;;;;5005003;28;20050;-74
2022/11/26 06:47:14;;;;;;;5.50;2.95;;;5.70;99.90;;;;;;5005329;28;20380;-74
2022/11/26 06:49:40;;;;;;;6.82;2.70;;;5.60;99.90;;;;;;4986364;28;20037;-74
2022/11/26 06:52:06;;;;;;;4.95;2.55;;;5.60;99.90;;;;;;4992620;28;20457;-74
2022/11/26 06:54:32;;;;;;;6.45;3.13;;;5.60;99.90;;;;;;5002102;28;20120;-74
2022/11/26 06:56:57;;;;;;;4.72;2.40;;;5.60;99.90;;;;;;5007124;28;20033;-74
2022/11/26 06:59:23;;;;;;;4.72;2.10;;;5.60;99.90;;;;;;5021617;28;20038;-74
2022/11/26 07:01:49;;;;;;;5.95;2.60;;;5.50;99.90;;;;;;5005898;28;20092;-74
2022/11/26 07:04:14;;;;;;;6.10;3.03;;;5.50;99.90;;;;;;5007119;28;20045;-73
2022/11/26 07:06:41;;;;;;;3.42;1.98;;;5.50;99.90;;;;;;5007897;28;20050;-74
2022/11/26 07:09:08;;;;;;;5.10;2.72;;;5.50;99.90;;;;;;4987825;28;20084;-74
2022/11/26 07:11:35;;;;;;;4.15;2.67;;;5.50;99.90;;;;;;4994685;28;20084;-74
2022/11/26 07:14:01;;;;;;;4.32;2.45;;;5.50;99.90;;;;;;5005516;28;20698;-74
2022/11/26 07:16:27;;;;;;;5.38;2.45;;;5.50;99.90;;;;;;5005873;28;20042;-73
2022/11/26 07:18:55;;;;;;;4.57;2.58;;;5.50;99.90;;;;;;5005516;28;20506;-74
2022/11/26 07:21:22;;;;;;;7.38;3.58;;;5.40;99.90;;;;;;5001691;28;20050;-73
2022/11/26 07:23:48;;;;;;;4.65;2.13;;;5.40;99.90;;;;;;5004303;28;20514;-74
2022/11/26 07:26:15;;;;;;;8.13;3.72;;;5.40;99.90;;;;;;5003907;28;20427;-72
2022/11/26 07:28:41;;;;;;;5.22;2.72;;;5.40;99.90;;;;;;5000077;28;20668;-74
2022/11/26 07:31:11;;;;;;;3.83;2.72;;;5.40;99.90;;;;;;5003532;28;20048;-73
2022/11/26 07:33:37;;;;;;;11.85;3.38;;;5.40;99.90;;;;;;4988695;28;20054;-74
2022/11/26 07:36:05;;;;;;;3.97;2.45;;;5.40;99.90;;;;;;5001344;28;20040;-74
2022/11/26 07:38:31;;;;;;;5.28;2.40;;;5.50;99.90;;;;;;4996759;28;20064;-74
2022/11/26 07:41:05;;;;;;;6.25;2.47;;;5.40;99.90;;;;;;4998841;28;20034;-74
2022/11/26 07:43:34;;;;;;;6.90;3.00;;;5.50;99.90;;;;;;4998719;28;20061;-73
2022/11/26 07:46:03;;;;;;;4.57;2.67;;;5.40;99.90;;;;;;4996080;28;20499;-74
2022/11/26 07:48:30;;;;;;;4.05;2.75;;;5.40;99.90;;;;;;4997191;28;20836;-74
2022/11/26 07:50:56;;;;;;;4.70;2.40;;;5.40;99.90;;;;;;4999888;28;20085;-74
2022/11/26 07:53:22;;;;;;;5.55;2.55;;;5.40;99.90;;;;;;4995694;28;20033;-73
2022/11/26 07:55:48;;;;;;;7.25;3.25;;;5.40;99.90;;;;;;4997224;28;20045;-74
2022/11/26 07:58:14;;;;;;;4.20;2.22;;;5.40;99.90;;;;;;4984787;28;20042;-73
2022/11/26 08:00:39;;;;;;;5.07;2.67;;;5.40;99.90;;;;;;5000745;28;20030;-74
2022/11/26 08:03:05;;;;;;;7.35;2.35;;;5.40;99.90;;;;;;4979227;28;21464;-73
2022/11/26 08:05:30;;;;;;;8.32;3.45;;;5.40;99.90;;;;;;5003392;28;20046;-73
2022/11/26 08:07:56;;;;;;;6.07;3.22;;;5.40;99.90;;;;;;5003658;28;20041;-73
2022/11/26 08:10:22;;;;;;;4.70;2.80;;;5.40;99.90;;;;;;5005117;28;20065;-74
2022/11/26 08:12:47;;;;;;;8.85;3.55;;;5.40;99.90;;;;;;5003888;28;20081;-73
2022/11/26 08:15:13;;;;;;;5.45;2.63;;;5.40;99.90;;;;;;5001620;28;20598;-74
2022/11/26 08:17:39;;;;;;;4.88;3.47;;;5.40;99.90;;;;;;5003243;28;20041;-73
2022/11/26 08:20:05;;;;;;;7.95;2.70;;;5.50;99.90;;;;;;4982674;28;20527;-73
2022/11/26 08:22:32;;;;;;;5.68;3.28;;;5.50;99.90;;;;;;5002984;28;20052;-73
2022/11/26 08:24:57;;;;;;;4.28;1.90;;;5.50;99.90;;;;;;5002502;28;20037;-73
2022/11/26 08:27:23;;;;;;;5.00;3.08;;;5.50;99.90;;;;;;5000536;28;20038;-74
2022/11/26 08:29:48;;;;;;;9.20;4.95;;;5.60;99.90;;;;;;5000466;28;20034;-73
2022/11/26 08:32:14;;;;;;;7.60;4.38;;;5.60;99.90;;;;;;5001155;28;20084;-73
2022/11/26 08:34:39;;;;;;;6.78;3.47;;;5.60;99.90;;;;;;4999393;28;20194;-74
2022/11/26 08:37:05;;;;;;;5.45;2.45;;;5.60;99.90;;;;;;5003831;28;20475;-74
2022/11/26 08:39:31;;;;;;;9.13;3.47;;;5.60;99.90;;;;;;4999850;28;20042;-74
2022/11/26 08:41:56;;;;;;;4.63;2.65;;;5.60;99.90;;;;;;5000801;28;20050;-74
2022/11/26 08:44:22;;;;;;;5.70;3.25;;;5.70;99.90;;;;;;5001938;28;20373;-73
2022/11/26 08:46:48;;;;;;;5.38;3.35;;;5.70;99.90;;;;;;5003556;28;20490;-73
2022/11/26 08:49:15;;;;;;;4.93;3.50;;;5.70;99.90;;;;;;5002434;28;20038;-73
2022/11/26 08:51:42;;;;;;;6.30;2.72;;;5.70;99.90;;;;;;5002970;28;20042;-73
2022/11/26 08:54:08;;;;;;;5.88;4.10;;;5.80;99.90;;;;;;4999146;28;20573;-73
2022/11/26 08:56:34;;;;;;;5.25;4.20;;;5.80;99.90;;;;;;4982782;28;20030;-73
2022/11/26 08:58:59;;;;;;;7.43;4.32;;;5.80;99.90;;;;;;4985808;28;20514;-73
2022/11/26 09:01:27;;;;;;;7.70;5.30;;;5.90;99.90;;;;;;5013812;28;20545;-72
2022/11/26 09:03:56;;;;;;;12.45;5.68;;;5.90;99.90;;;;;;4996930;28;20141;-72
2022/11/26 09:06:23;;;;;;;8.10;3.40;;;5.90;99.90;;;;;;5005407;28;20795;-74
2022/11/26 09:11:36;;;;;;;5.93;3.60;;;6.00;99.90;;;;;;5002026;28;20037;-73
2022/11/26 09:14:02;;;;;;;8.20;4.00;;;6.00;99.90;;;;;;4986849;28;20113;-73
2022/11/26 09:16:28;;;;;;;8.25;3.30;;;6.00;99.90;;;;;;4991524;28;20046;-73
2022/11/26 09:18:54;;;;;;;7.97;4.05;;;6.00;99.90;;;;;;5003463;28;20079;-73
2022/11/26 09:21:20;;;;;;;6.45;3.83;;;6.10;99.90;;;;;;4983168;28;20046;-73
2022/11/26 09:23:46;;;;;;;8.52;3.72;;;6.10;99.90;;;;;;4978599;28;20038;-73
2022/11/26 09:26:11;;;;;;;7.78;3.80;;;6.10;99.90;;;;;;5007440;28;20034;-73
2022/11/26 09:28:38;;;;;;;4.93;3.10;;;6.10;99.90;;;;;;5003281;28;20497;-74
2022/11/26 09:31:04;;;;;;;6.15;3.47;;;6.20;99.90;;;;;;5002215;28;20042;-73
2022/11/26 09:33:30;;;;;;;6.65;4.18;;;6.20;99.90;;;;;;5001601;28;20166;-73
2022/11/26 09:36:06;;;;;;;7.40;3.85;;;6.20;99.90;;;;;;5001701;28;20128;-73
2022/11/26 09:38:32;;;;;;;8.73;3.78;;;6.30;99.90;;;;;;4997699;28;20103;-73
2022/11/26 09:41:25;;;;;;;5.93;4.10;;;6.20;99.90;;;;;;4991663;28;20045;-73
2022/11/26 09:44:24;;;;;;;9.15;4.20;;;6.30;99.90;;;;;;4996644;28;20993;-73
2022/11/26 09:47:11;;;;;;;8.20;4.03;;;6.30;99.90;;;;;;4999421;28;21220;-73
2022/11/26 09:50:00;;;;;;;13.10;4.40;;;6.40;99.90;;;;;;4998495;28;20046;-73
2022/11/26 09:52:33;;;;;;;9.80;3.83;;;6.40;99.90;;;;;;5000800;28;20037;-74
2022/11/26 09:55:25;;;;;;;6.53;3.38;;;6.40;99.90;;;;;;4997601;28;20037;-73
2022/11/26 09:58:15;;;;;;;7.63;4.20;;;6.40;99.90;;;;;;4986410;28;20073;-74
2022/11/26 10:00:44;;;;;;;11.32;5.13;;;6.50;99.90;;;;;;4997359;28;20129;-74
2022/11/26 10:03:16;;;;;;;10.13;4.70;;;6.50;99.90;;;;;;5000944;28;20708;-74
2022/11/26 10:05:45;;;;;;;13.48;4.57;;;6.50;99.90;;;;;;4983179;28;20041;-75
2022/11/26 10:08:37;;;;;;;8.57;4.10;;;6.60;99.90;;;;;;4981166;28;20069;-74
2022/11/26 10:11:08;;;;;;;10.18;4.38;;;6.60;99.90;;;;;;5007648;28;20046;-74
2022/11/26 10:13:48;;;;;;;6.65;3.92;;;6.70;99.90;;;;;;4998531;28;20034;-74
2022/11/26 10:16:17;;;;;;;8.30;3.85;;;6.70;99.90;;;;;;5000017;28;20112;-73
2022/11/26 10:18:54;;;;;;;7.75;4.40;;;6.70;99.90;;;;;;5007678;28;20069;-74
2022/11/26 10:21:36;;;;;;;16.67;5.78;;;6.80;99.90;;;;;;4984429;28;20042;-74
2022/11/26 10:24:12;;;;;;;14.32;6.68;;;6.80;99.90;;;;;;4996571;28;20049;-74
2022/11/26 10:26:39;;;;;;;9.88;5.82;;;6.90;99.90;;;;;;4983425;28;20046;-75
2022/11/26 10:29:22;;;;;;;11.23;7.35;;;6.90;99.90;;;;;;4982535;28;20049;-74
2022/11/26 10:31:49;;;;;;;8.90;4.95;;;6.90;99.90;;;;;;4983589;28;20046;-74
2022/11/26 10:34:41;;;;;;;11.45;5.57;;;7.00;99.90;;;;;;5001171;28;20087;-74
2022/11/26 10:37:07;;;;;;;9.20;5.28;;;7.00;99.90;;;;;;4990036;28;20133;-74
2022/11/26 10:39:32;;;;;;;14.45;7.03;;;7.10;99.90;;;;;;4997543;28;20056;-75
2022/11/26 10:42:05;;;;;;;17.48;6.07;;;7.20;99.90;;;;;;4982742;28;20061;-75
2022/11/26 10:44:40;;;;;;;13.35;5.07;;;7.20;99.90;;;;;;5000506;28;20037;-74
2022/11/26 10:47:25;;;;;;;8.50;4.80;;;7.30;99.90;;;;;;5013495;28;20045;-75
2022/11/26 10:50:12;;;;;;;13.32;5.40;;;7.40;99.90;;;;;;4998652;28;20042;-74
2022/11/26 10:52:38;;;;;;;9.38;5.43;;;7.40;99.90;;;;;;4996520;28;20127;-75
2022/11/26 10:55:19;;;;;;;13.43;6.55;;;7.40;99.90;;;;;;5002806;28;20484;-74
2022/11/26 10:57:54;;;;;;;14.85;6.78;;;7.50;99.90;;;;;;4996164;28;20042;-74
2022/11/26 11:00:30;;;;;;;13.60;7.35;;;7.50;99.90;;;;;;4979680;28;20061;-74
2022/11/26 11:02:58;;;;;;;12.02;6.55;;;7.50;99.90;;;;;;4980281;28;20099;-74
2022/11/26 11:05:24;;;;;;;14.02;7.63;;;7.60;99.90;;;;;;4999648;28;20037;-75
2022/11/26 11:07:52;;;;;;;14.70;5.57;;;7.60;99.90;;;;;;4996960;28;20112;-75
2022/11/26 11:10:20;;;;;;;18.52;7.25;;;7.60;99.90;;;;;;4998956;28;20041;-74
2022/11/26 11:13:01;;;;;;;21.45;6.03;;;7.60;99.90;;;;;;4980870;28;20132;-75
2022/11/26 11:15:34;;;;;;;17.20;8.10;;;7.60;99.90;;;;;;4994854;28;20060;-74
2022/11/26 11:18:19;;;;;;;15.60;6.93;;;7.60;99.90;;;;;;4995502;28;20064;-74
2022/11/26 11:20:54;;;;;;;16.23;6.35;;;7.70;99.90;;;;;;4994424;28;20077;-74
2022/11/26 11:23:29;;;;;;;18.33;8.75;;;7.70;99.90;;;;;;4979592;28;20049;-74
2022/11/26 11:26:07;;;;;;;15.82;6.97;;;7.70;99.90;;;;;;4988640;28;20120;-74
2022/11/26 11:28:38;;;;;;;25.98;7.38;;;7.70;99.90;;;;;;4995396;28;20338;-74
2022/11/26 11:31:18;;;;;;;10.93;5.18;;;7.80;99.90;;;;;;5002991;28;20132;-74
2022/11/26 11:33:44;;;;;;;13.48;6.75;;;7.80;99.90;;;;;;4984092;28;20491;-74
2022/11/26 11:36:13;;;;;;;16.70;7.47;;;7.80;99.90;;;;;;4994301;28;20519;-74
2022/11/26 11:38:51;;;;;;;15.82;7.82;;;7.90;99.90;;;;;;4995171;28;20038;-74
2022/11/26 11:41:45;;;;;;;13.90;6.72;;;7.80;99.90;;;;;;4996784;28;20124;-74
2022/11/26 11:44:19;;;;;;;11.30;6.43;;;7.80;99.90;;;;;;4996210;28;20038;-74
2022/11/26 11:47:14;;;;;;;17.75;6.68;;;7.90;99.90;;;;;;4994974;28;20065;-75
2022/11/26 11:50:12;;;;;;;14.68;6.68;;;7.90;99.90;;;;;;4991724;28;20147;-74
2022/11/26 11:52:46;;;;;;;17.90;6.65;;;7.90;99.90;;;;;;4993623;28;20046;-74
2022/11/26 11:55:12;;;;;;;16.00;6.55;;;7.90;99.90;;;;;;4989725;28;20095;-75
2022/11/26 11:58:22;;;;;;;14.93;5.65;;;8.00;99.90;;;;;;4980588;28;20042;-74
2022/11/26 12:00:54;;;;;;;18.55;6.72;;;8.00;99.90;;;;;;4997184;28;20042;-74
2022/11/26 12:03:50;;;;;;;21.83;8.95;;;8.00;99.90;;;;;;4996065;28;20076;-75
2022/11/26 12:06:45;;;;;;;16.02;6.00;;;8.00;99.90;;;;;;4978890;28;20048;-75
2022/11/26 12:09:19;;;;;;;11.65;4.90;;;8.00;99.90;;;;;;4994093;28;20046;-75
2022/11/26 12:12:22;;;;;;;14.48;5.68;;;8.00;99.90;;;;;;5014911;28;20487;-75
2022/11/26 12:14:58;;;;;;;14.57;5.47;;;8.10;99.90;;;;;;4977978;28;20560;-74
2022/11/26 12:17:38;;;;;;;18.23;6.53;;;8.10;99.90;;;;;;4993397;28;20042;-74
2022/11/26 12:20:43;;;;;;;18.02;6.95;;;8.20;99.90;;;;;;4993702;28;20054;-75
2022/11/26 12:23:08;;;;;;;17.73;5.35;;;8.20;99.90;;;;;;4997007;28;20038;-74
2022/11/26 12:25:36;;;;;;;16.15;6.80;;;8.10;99.90;;;;;;4976955;28;20030;-74
2022/11/26 12:28:18;;;;;;;20.75;5.40;;;8.20;99.90;;;;;;4995932;28;20081;-74
2022/11/26 12:31:00;;;;;;;16.40;5.80;;;8.20;99.90;;;;;;4996189;28;20034;-75
2022/11/26 12:33:30;;;;;;;17.60;5.60;;;8.20;99.90;;;;;;4996876;28;20050;-75
2022/11/26 12:36:04;;;;;;;14.23;5.32;;;8.20;99.90;;;;;;4991764;28;20041;-75
2022/11/26 12:38:38;;;;;;;11.02;5.85;;;8.20;99.90;;;;;;4974055;28;20237;-75
2022/11/26 12:41:09;;;;;;;14.27;5.78;;;8.30;99.90;;;;;;4991567;28;20042;-74
2022/11/26 12:44:02;;;;;;;13.88;5.28;;;8.30;99.90;;;;;;4996587;28;20619;-74
2022/11/26 12:46:43;;;;;;;10.82;6.05;;;8.30;99.90;;;;;;4976687;28;20046;-75
2022/11/26 12:49:38;;;;;;;16.38;5.18;;;8.30;99.90;;;;;;4979666;28;20384;-74
2022/11/26 12:52:27;;;;;;;19.80;5.65;;;8.40;99.90;;;;;;4962729;28;20530;-74
2022/11/26 12:55:17;;;;;;;11.90;5.97;;;8.30;99.90;;;;;;5009092;28;20033;-74
2022/11/26 12:57:57;;;;;;;13.80;5.10;;;8.40;99.90;;;;;;5009454;28;20044;-74
2022/11/26 13:00:30;;;;;;;14.27;5.40;;;8.40;99.90;;;;;;5028217;28;20034;-74
2022/11/26 13:02:56;;;;;;;15.90;5.82;;;8.40;99.90;;;;;;5009807;28;20521;-74
2022/11/26 13:05:33;;;;;;;17.65;5.88;;;8.40;99.90;;;;;;5009813;28;20034;-74
2022/11/26 13:08:01;;;;;;;12.00;5.97;;;8.40;99.90;;;;;;5014651;28;20042;-74
2022/11/26 13:10:56;;;;;;;18.65;6.47;;;8.40;99.90;;;;;;5013791;28;20175;-75
2022/11/26 13:13:47;;;;;;;11.18;4.28;;;8.40;99.90;;;;;;5010400;28;20128;-74
2022/11/26 13:16:33;;;;;;;9.95;4.28;;;8.40;99.90;;;;;;5028609;28;20448;-74